createdAt,value
2022-08-11T00:00:32.366Z,7.88
2022-08-11T00:00:50.888Z,7.88
2022-08-11T00:01:21.886Z,7.88
2022-08-11T00:01:52.895Z,7.88
2022-08-11T00:02:23.900Z,7.77
2022-08-11T00:02:55.032Z,7.77
2022-08-11T00:03:25.984Z,7.77
2022-08-11T00:03:56.908Z,7.77
2022-08-11T00:04:27.893Z,7.77
2022-08-11T00:05:00.015Z,8.11
2022-08-11T00:05:29.883Z,8.00
2022-08-11T00:06:01.140Z,7.77
2022-08-11T00:06:31.914Z,8.00
2022-08-11T00:07:02.925Z,8.00
2022-08-11T00:07:34.111Z,8.00
2022-08-11T00:08:04.934Z,8.00
2022-08-11T00:08:35.892Z,7.77
2022-08-11T00:09:06.951Z,7.77
2022-08-11T00:09:38.938Z,7.77
2022-08-11T00:10:14.904Z,7.77
2022-08-11T00:10:39.909Z,7.77
2022-08-11T00:11:10.904Z,7.77
2022-08-11T00:11:41.881Z,8.00
2022-08-11T00:12:12.957Z,8.00
2022-08-11T00:12:43.893Z,8.00
2022-08-11T00:13:16.815Z,8.00
2022-08-11T00:13:45.929Z,8.00
2022-08-11T00:14:16.923Z,7.88
2022-08-11T00:14:47.965Z,7.88
2022-08-11T00:15:32.202Z,7.88
2022-08-11T00:15:49.883Z,7.88
2022-08-11T00:16:20.879Z,7.88
2022-08-11T00:16:51.896Z,7.88
2022-08-11T00:17:22.880Z,7.88
2022-08-11T00:17:53.930Z,7.88
2022-08-11T00:18:24.887Z,7.88
2022-08-11T00:18:55.912Z,7.88
2022-08-11T00:20:14.390Z,7.88
2022-08-11T00:20:29.909Z,7.88
2022-08-11T00:20:59.898Z,7.88
2022-08-11T00:22:02.047Z,7.88
2022-08-11T00:22:33.155Z,7.88
2022-08-11T00:23:03.925Z,7.88
2022-08-11T00:23:34.888Z,7.88
2022-08-11T00:24:05.945Z,7.88
2022-08-11T00:24:49.338Z,7.88
2022-08-11T00:25:07.955Z,7.88
2022-08-11T00:25:39.883Z,7.88
2022-08-11T00:26:09.958Z,7.88
2022-08-11T00:26:40.898Z,7.88
2022-08-11T00:27:14.305Z,7.88
2022-08-11T00:27:42.910Z,7.88
2022-08-11T00:28:13.891Z,8.22
2022-08-11T00:28:44.899Z,7.88
2022-08-11T00:29:15.904Z,7.88
2022-08-11T00:29:51.829Z,8.22
2022-08-11T00:30:30.475Z,7.88
2022-08-11T00:30:49.902Z,7.77
2022-08-11T00:31:19.971Z,7.77
2022-08-11T00:31:50.914Z,7.77
2022-08-11T00:32:21.884Z,7.77
2022-08-11T00:32:52.885Z,7.77
2022-08-11T00:33:41.276Z,7.77
2022-08-11T00:33:54.965Z,7.77
2022-08-11T00:34:25.890Z,8.11
2022-08-11T00:35:55.153Z,7.77
2022-08-11T00:35:59.996Z,7.77
2022-08-11T00:36:29.984Z,7.77
2022-08-11T00:37:01.038Z,7.77
2022-08-11T00:37:31.889Z,7.77
2022-08-11T00:38:02.960Z,7.77
2022-08-11T00:38:33.901Z,7.88
2022-08-11T00:39:04.902Z,7.88
2022-08-11T00:39:36.002Z,7.88
2022-08-11T00:40:06.958Z,7.88
2022-08-11T00:40:38.005Z,7.88
2022-08-11T00:41:09.942Z,7.88
2022-08-11T00:41:39.934Z,7.88
2022-08-11T00:42:10.911Z,7.88
2022-08-11T00:42:41.882Z,7.88
2022-08-11T00:43:20.168Z,7.88
2022-08-11T00:43:43.936Z,8.22
2022-08-11T00:44:14.955Z,7.88
2022-08-11T00:44:45.885Z,7.88
2022-08-11T00:45:29.197Z,7.88
2022-08-11T00:45:47.881Z,7.88
2022-08-11T00:46:19.875Z,7.88
2022-08-11T00:46:49.883Z,7.88
2022-08-11T00:47:20.889Z,7.88
2022-08-11T00:47:51.870Z,7.88
2022-08-11T00:48:22.889Z,7.88
2022-08-11T00:48:53.881Z,8.00
2022-08-11T00:49:24.932Z,8.00
2022-08-11T00:49:55.877Z,8.00
2022-08-11T00:50:26.883Z,8.00
2022-08-11T00:50:57.885Z,8.00
2022-08-11T00:52:03.945Z,8.00
2022-08-11T00:52:30.880Z,8.00
2022-08-11T00:53:02.188Z,8.00
2022-08-11T00:53:32.915Z,8.00
2022-08-11T00:54:03.992Z,8.00
2022-08-11T00:54:34.942Z,8.00
2022-08-11T00:55:05.933Z,8.00
2022-08-11T00:55:36.875Z,8.00
2022-08-11T00:56:07.947Z,8.00
2022-08-11T00:56:39.934Z,8.00
2022-08-11T00:57:36.887Z,8.00
2022-08-11T00:57:40.898Z,8.00
2022-08-11T00:58:11.855Z,8.00
2022-08-11T00:58:42.873Z,8.00
2022-08-11T00:59:34.196Z,8.00
2022-08-11T00:59:44.919Z,8.00
2022-08-11T01:00:28.361Z,8.00
2022-08-11T01:00:47.339Z,8.00
2022-08-11T01:01:18.205Z,8.00
2022-08-11T01:01:50.201Z,8.00
2022-08-11T01:02:21.216Z,8.00
2022-08-11T01:02:51.431Z,8.00
2022-08-11T01:03:33.670Z,8.00
2022-08-11T01:03:53.844Z,8.00
2022-08-11T01:04:33.441Z,8.00
2022-08-11T01:04:55.884Z,8.00
2022-08-11T01:05:26.007Z,8.00
2022-08-11T01:05:56.954Z,8.00
2022-08-11T01:06:27.941Z,8.11
2022-08-11T01:06:59.957Z,8.11
2022-08-11T01:08:02.224Z,8.11
2022-08-11T01:08:32.002Z,8.11
2022-08-11T01:09:03.072Z,8.11
2022-08-11T01:09:33.950Z,8.11
2022-08-11T01:10:07.171Z,8.11
2022-08-11T01:10:35.902Z,8.11
2022-08-11T01:11:06.909Z,8.11
2022-08-11T01:11:37.924Z,8.11
2022-08-11T01:12:09.944Z,8.11
2022-08-11T01:12:40.054Z,8.11
2022-08-11T01:13:10.866Z,8.11
2022-08-11T01:13:41.872Z,8.11
2022-08-11T01:14:12.904Z,8.11
2022-08-11T01:14:43.892Z,8.11
2022-08-11T01:15:27.177Z,8.11
2022-08-11T01:15:57.272Z,8.11
2022-08-11T01:16:16.891Z,8.11
2022-08-11T01:16:47.874Z,8.11
2022-08-11T01:17:19.927Z,8.11
2022-08-11T01:17:49.887Z,8.11
2022-08-11T01:18:20.914Z,8.11
2022-08-11T01:18:51.896Z,8.11
2022-08-11T01:19:22.908Z,8.11
2022-08-11T01:20:45.789Z,8.11
2022-08-11T01:20:55.955Z,8.22
2022-08-11T01:21:26.907Z,8.22
2022-08-11T01:21:57.892Z,8.22
2022-08-11T01:22:29.873Z,8.22
2022-08-11T01:22:59.877Z,8.22
2022-08-11T01:23:30.902Z,8.22
2022-08-11T01:24:02.009Z,8.22
2022-08-11T01:24:32.907Z,8.22
2022-08-11T01:25:03.888Z,8.22
2022-08-11T01:25:34.921Z,8.22
2022-08-11T01:26:05.927Z,8.22
2022-08-11T01:26:36.860Z,8.22
2022-08-11T01:27:19.117Z,8.22
2022-08-11T01:27:39.893Z,8.22
2022-08-11T01:28:09.916Z,8.22
2022-08-11T01:28:40.872Z,8.22
2022-08-11T01:29:11.856Z,8.22
2022-08-11T01:29:42.931Z,8.27
2022-08-11T01:30:26.244Z,8.27
2022-08-11T01:30:44.860Z,8.27
2022-08-11T01:31:15.878Z,8.27
2022-08-11T01:31:46.853Z,8.27
2022-08-11T01:32:17.950Z,8.27
2022-08-11T01:32:49.883Z,8.27
2022-08-11T01:33:19.929Z,8.27
2022-08-11T01:33:50.905Z,8.27
2022-08-11T01:34:21.978Z,8.27
2022-08-11T01:34:52.882Z,8.27
2022-08-11T01:35:23.850Z,8.27
2022-08-11T01:35:54.918Z,8.27
2022-08-11T01:36:25.889Z,8.27
2022-08-11T01:36:57.223Z,8.27
2022-08-11T01:37:27.852Z,8.27
2022-08-11T01:38:00.012Z,8.27
2022-08-11T01:38:29.947Z,8.27
2022-08-11T01:39:01.018Z,8.27
2022-08-11T01:39:31.915Z,8.22
2022-08-11T01:40:02.950Z,8.22
2022-08-11T01:40:33.858Z,8.22
2022-08-11T01:41:04.913Z,8.27
2022-08-11T01:41:35.915Z,8.27
2022-08-11T01:42:06.885Z,8.27
2022-08-11T01:42:38.053Z,8.27
2022-08-11T01:43:09.948Z,8.27
2022-08-11T01:43:39.894Z,8.27
2022-08-11T01:44:12.645Z,8.27
2022-08-11T01:44:41.866Z,8.27
2022-08-11T01:45:25.198Z,8.27
2022-08-11T01:45:43.864Z,8.38
2022-08-11T01:46:14.917Z,8.38
2022-08-11T01:46:45.868Z,8.38
2022-08-11T01:47:16.855Z,8.38
2022-08-11T01:47:52.910Z,8.38
2022-08-11T01:48:19.865Z,8.38
2022-08-11T01:48:49.856Z,8.50
2022-08-11T01:50:07.107Z,8.50
2022-08-11T01:50:22.929Z,8.50
2022-08-11T01:50:53.880Z,8.50
2022-08-11T01:51:24.871Z,8.50
2022-08-11T01:51:55.861Z,8.50
2022-08-11T01:52:33.698Z,8.50
2022-08-11T01:52:57.907Z,8.50
2022-08-11T01:53:29.874Z,8.50
2022-08-11T01:53:59.876Z,8.50
2022-08-11T01:54:30.847Z,8.50
2022-08-11T01:55:01.997Z,8.50
2022-08-11T01:55:32.917Z,8.50
2022-08-11T01:56:03.868Z,8.50
2022-08-11T01:56:34.941Z,8.50
2022-08-11T01:57:05.922Z,8.50
2022-08-11T01:57:36.862Z,8.50
2022-08-11T01:58:07.960Z,8.50
2022-08-11T01:58:43.253Z,8.50
2022-08-11T01:59:09.882Z,8.50
2022-08-11T01:59:40.916Z,8.50
2022-08-11T02:00:24.508Z,8.50
2022-08-11T02:00:42.972Z,8.50
2022-08-11T02:01:14.264Z,8.50
2022-08-11T02:01:44.853Z,8.50
2022-08-11T02:02:19.942Z,8.50
2022-08-11T02:02:46.890Z,8.50
2022-08-11T02:03:17.886Z,8.50
2022-08-11T02:03:49.857Z,8.50
2022-08-11T02:04:19.853Z,8.50
2022-08-11T02:04:50.903Z,8.50
2022-08-11T02:05:21.910Z,8.50
2022-08-11T02:05:52.985Z,8.61
2022-08-11T02:06:23.920Z,8.61
2022-08-11T02:06:54.901Z,8.61
2022-08-11T02:07:25.867Z,8.50
2022-08-11T02:07:56.853Z,8.50
2022-08-11T02:08:32.805Z,8.50
2022-08-11T02:08:59.853Z,8.50
2022-08-11T02:09:29.862Z,8.50
2022-08-11T02:10:00.973Z,8.50
2022-08-11T02:10:35.555Z,8.50
2022-08-11T02:11:02.935Z,8.50
2022-08-11T02:11:35.738Z,8.50
2022-08-11T02:12:04.941Z,8.50
2022-08-11T02:12:35.873Z,8.50
2022-08-11T02:13:06.887Z,8.50
2022-08-11T02:13:37.870Z,8.50
2022-08-11T02:14:09.858Z,8.50
2022-08-11T02:14:39.935Z,8.50
2022-08-11T02:15:23.273Z,8.50
2022-08-11T02:15:41.845Z,8.50
2022-08-11T02:16:12.839Z,8.50
2022-08-11T02:16:43.915Z,8.50
2022-08-11T02:17:14.857Z,8.50
2022-08-11T02:17:45.871Z,8.50
2022-08-11T02:18:16.896Z,8.50
2022-08-11T02:18:47.846Z,8.50
2022-08-11T02:19:19.855Z,8.50
2022-08-11T02:19:49.867Z,8.50
2022-08-11T02:20:20.861Z,8.50
2022-08-11T02:20:51.885Z,8.50
2022-08-11T02:21:22.898Z,8.50
2022-08-11T02:21:53.891Z,8.50
2022-08-11T02:22:24.861Z,8.61
2022-08-11T02:22:55.876Z,8.61
2022-08-11T02:24:05.836Z,8.61
2022-08-11T02:24:29.854Z,8.61
2022-08-11T02:24:59.857Z,8.72
2022-08-11T02:25:30.906Z,8.72
2022-08-11T02:26:01.958Z,8.72
2022-08-11T02:26:32.844Z,8.72
2022-08-11T02:27:03.953Z,8.50
2022-08-11T02:27:34.890Z,8.50
2022-08-11T02:28:05.851Z,8.50
2022-08-11T02:28:38.961Z,8.61
2022-08-11T02:29:07.961Z,8.61
2022-08-11T02:29:39.908Z,8.61
2022-08-11T02:30:22.383Z,8.61
2022-08-11T02:30:40.859Z,8.61
2022-08-11T02:31:11.843Z,8.61
2022-08-11T02:32:28.542Z,8.61
2022-08-11T02:32:44.855Z,8.61
2022-08-11T02:33:15.866Z,8.61
2022-08-11T02:33:46.857Z,8.61
2022-08-11T02:34:17.913Z,8.61
2022-08-11T02:34:59.778Z,8.61
2022-08-11T02:35:19.853Z,8.61
2022-08-11T02:35:50.844Z,8.61
2022-08-11T02:36:21.837Z,8.61
2022-08-11T02:36:52.866Z,8.61
2022-08-11T02:37:23.920Z,8.61
2022-08-11T02:37:54.857Z,8.61
2022-08-11T02:38:25.867Z,8.61
2022-08-11T02:38:56.901Z,8.61
2022-08-11T02:39:27.935Z,8.61
2022-08-11T02:39:59.839Z,8.61
2022-08-11T02:40:29.844Z,8.61
2022-08-11T02:41:00.975Z,8.61
2022-08-11T02:41:31.870Z,8.61
2022-08-11T02:42:02.947Z,8.61
2022-08-11T02:42:36.114Z,8.61
2022-08-11T02:43:04.911Z,8.61
2022-08-11T02:43:35.838Z,8.61
2022-08-11T02:44:06.851Z,8.77
2022-08-11T02:44:37.905Z,8.61
2022-08-11T02:45:22.187Z,8.77
2022-08-11T02:45:39.837Z,8.61
2022-08-11T02:46:18.400Z,8.50
2022-08-11T02:46:41.891Z,8.72
2022-08-11T02:47:12.861Z,8.72
2022-08-11T02:47:43.877Z,8.72
2022-08-11T02:48:14.876Z,8.72
2022-08-11T02:48:45.850Z,8.72
2022-08-11T02:49:16.838Z,8.72
2022-08-11T02:49:47.875Z,8.72
2022-08-11T02:50:19.876Z,8.61
2022-08-11T02:50:49.843Z,8.61
2022-08-11T02:51:21.878Z,8.61
2022-08-11T02:51:51.865Z,8.61
2022-08-11T02:52:22.865Z,8.61
2022-08-11T02:52:53.854Z,8.61
2022-08-11T02:53:24.856Z,8.61
2022-08-11T02:53:56.419Z,8.61
2022-08-11T02:54:26.890Z,8.61
2022-08-11T02:54:57.939Z,8.72
2022-08-11T02:55:46.974Z,8.72
2022-08-11T02:55:59.908Z,8.72
2022-08-11T02:56:30.856Z,8.72
2022-08-11T02:57:01.946Z,8.72
2022-08-11T02:57:32.872Z,8.72
2022-08-11T02:58:03.959Z,8.72
2022-08-11T02:58:34.838Z,8.72
2022-08-11T02:59:05.869Z,8.72
2022-08-11T02:59:36.867Z,8.72
2022-08-11T03:00:20.390Z,8.72
2022-08-11T03:00:39.867Z,8.72
2022-08-11T03:01:09.871Z,8.72
2022-08-11T03:01:40.883Z,8.72
2022-08-11T03:02:11.945Z,8.61
2022-08-11T03:02:42.851Z,8.61
2022-08-11T03:03:13.935Z,8.61
2022-08-11T03:03:44.849Z,8.77
2022-08-11T03:04:15.845Z,8.77
2022-08-11T03:04:46.867Z,8.72
2022-08-11T03:05:17.839Z,8.50
2022-08-11T03:05:49.837Z,8.50
2022-08-11T03:06:19.848Z,8.50
2022-08-11T03:06:50.853Z,8.50
2022-08-11T03:07:28.023Z,8.50
2022-08-11T03:07:52.907Z,8.72
2022-08-11T03:08:23.918Z,8.50
2022-08-11T03:08:54.836Z,8.50
2022-08-11T03:09:25.895Z,8.50
2022-08-11T03:09:56.853Z,8.50
2022-08-11T03:10:27.881Z,8.50
2022-08-11T03:10:59.876Z,8.61
2022-08-11T03:11:29.892Z,8.61
2022-08-11T03:12:00.998Z,8.61
2022-08-11T03:12:31.856Z,8.61
2022-08-11T03:13:02.938Z,8.50
2022-08-11T03:13:34.088Z,8.50
2022-08-11T03:14:04.988Z,8.50
2022-08-11T03:14:35.850Z,8.50
2022-08-11T03:15:19.246Z,8.50
2022-08-11T03:15:38.682Z,8.50
2022-08-11T03:16:09.833Z,8.50
2022-08-11T03:16:39.842Z,8.50
2022-08-11T03:17:10.884Z,8.50
2022-08-11T03:17:41.845Z,8.50
2022-08-11T03:18:12.920Z,8.50
2022-08-11T03:18:43.897Z,8.50
2022-08-11T03:19:14.888Z,8.50
2022-08-11T03:19:45.837Z,8.50
2022-08-11T03:20:16.942Z,8.50
2022-08-11T03:20:47.841Z,8.50
2022-08-11T03:21:19.989Z,8.50
2022-08-11T03:22:02.271Z,8.72
2022-08-11T03:22:20.853Z,8.72
2022-08-11T03:22:51.858Z,8.50
2022-08-11T03:23:22.896Z,8.38
2022-08-11T03:23:53.888Z,8.61
2022-08-11T03:24:24.849Z,8.61
2022-08-11T03:24:55.897Z,8.61
2022-08-11T03:25:26.834Z,8.61
2022-08-11T03:25:57.869Z,8.50
2022-08-11T03:26:29.876Z,8.50
2022-08-11T03:26:59.847Z,8.50
2022-08-11T03:27:30.841Z,8.50
2022-08-11T03:28:02.722Z,8.50
2022-08-11T03:28:32.824Z,8.61
2022-08-11T03:29:03.935Z,8.61
2022-08-11T03:29:34.848Z,8.50
2022-08-11T03:30:18.289Z,8.50
2022-08-11T03:30:36.920Z,8.50
2022-08-11T03:31:07.864Z,8.50
2022-08-11T03:31:39.870Z,8.50
2022-08-11T03:32:09.840Z,8.50
2022-08-11T03:32:40.844Z,8.50
2022-08-11T03:33:11.839Z,8.50
2022-08-11T03:33:42.912Z,8.38
2022-08-11T03:34:13.866Z,8.38
2022-08-11T03:34:44.901Z,8.38
2022-08-11T03:35:21.158Z,8.38
2022-08-11T03:35:46.840Z,8.38
2022-08-11T03:36:17.845Z,8.38
2022-08-11T03:37:14.989Z,8.38
2022-08-11T03:37:19.831Z,8.38
2022-08-11T03:37:50.849Z,8.72
2022-08-11T03:38:21.869Z,8.72
2022-08-11T03:38:52.843Z,8.38
2022-08-11T03:39:23.970Z,8.38
2022-08-11T03:39:56.726Z,8.61
2022-08-11T03:40:25.892Z,8.61
2022-08-11T03:40:56.921Z,8.61
2022-08-11T03:42:02.778Z,8.61
2022-08-11T03:42:29.896Z,8.61
2022-08-11T03:43:00.973Z,8.61
2022-08-11T03:43:31.828Z,8.61
2022-08-11T03:44:02.883Z,8.50
2022-08-11T03:44:33.979Z,8.50
2022-08-11T03:45:17.333Z,8.50
2022-08-11T03:45:40.726Z,8.50
2022-08-11T03:46:06.828Z,8.38
2022-08-11T03:46:37.823Z,8.38
2022-08-11T03:47:09.893Z,8.38
2022-08-11T03:47:39.819Z,8.38
2022-08-11T03:48:10.827Z,8.50
2022-08-11T03:48:41.841Z,8.50
2022-08-11T03:49:12.843Z,8.50
2022-08-11T03:49:43.914Z,8.50
2022-08-11T03:50:14.830Z,8.50
2022-08-11T03:50:45.823Z,8.50
2022-08-11T03:51:17.705Z,8.38
2022-08-11T03:51:52.155Z,8.38
2022-08-11T03:52:19.846Z,8.38
2022-08-11T03:52:49.844Z,8.38
2022-08-11T03:53:20.902Z,8.38
2022-08-11T03:53:51.829Z,8.38
2022-08-11T03:54:23.056Z,8.38
2022-08-11T03:54:53.845Z,8.38
2022-08-11T03:55:24.964Z,8.38
2022-08-11T03:55:55.951Z,8.38
2022-08-11T03:56:26.837Z,8.38
2022-08-11T03:56:57.866Z,8.38
2022-08-11T03:57:29.893Z,8.38
2022-08-11T03:57:59.910Z,8.38
2022-08-11T03:58:30.907Z,8.38
2022-08-11T03:59:02.003Z,8.38
2022-08-11T03:59:32.916Z,8.38
2022-08-11T04:00:16.335Z,8.38
2022-08-11T04:00:34.902Z,8.38
2022-08-11T04:01:05.939Z,8.38
2022-08-11T04:01:37.022Z,8.38
2022-08-11T04:02:07.934Z,8.38
2022-08-11T04:02:39.934Z,8.27
2022-08-11T04:03:09.918Z,8.27
2022-08-11T04:03:40.959Z,8.27
2022-08-11T04:04:11.832Z,8.27
2022-08-11T04:04:47.536Z,8.27
2022-08-11T04:05:13.921Z,8.61
2022-08-11T04:05:44.986Z,8.27
2022-08-11T04:06:15.939Z,8.61
2022-08-11T04:06:46.963Z,8.61
2022-08-11T04:07:17.964Z,8.61
2022-08-11T04:07:49.935Z,8.50
2022-08-11T04:08:19.902Z,8.22
2022-08-11T04:08:50.915Z,8.50
2022-08-11T04:09:21.899Z,8.50
2022-08-11T04:09:53.065Z,8.22
2022-08-11T04:10:23.901Z,8.22
2022-08-11T04:10:54.951Z,8.50
2022-08-11T04:11:25.901Z,8.50
2022-08-11T04:11:56.983Z,8.22
2022-08-11T04:12:45.618Z,8.50
2022-08-11T04:12:59.935Z,8.50
2022-08-11T04:13:29.950Z,8.50
2022-08-11T04:14:01.034Z,8.50
2022-08-11T04:14:31.896Z,8.50
2022-08-11T04:15:15.336Z,8.50
2022-08-11T04:15:34.019Z,8.50
2022-08-11T04:16:11.515Z,8.50
2022-08-11T04:16:35.924Z,8.50
2022-08-11T04:17:07.126Z,8.50
2022-08-11T04:17:37.930Z,8.38
2022-08-11T04:18:09.936Z,8.61
2022-08-11T04:18:39.907Z,8.38
2022-08-11T04:19:10.950Z,8.38
2022-08-11T04:19:41.898Z,8.27
2022-08-11T04:20:12.978Z,8.27
2022-08-11T04:20:43.864Z,8.50
2022-08-11T04:21:14.946Z,8.27
2022-08-11T04:21:45.923Z,8.27
2022-08-11T04:22:16.954Z,8.27
2022-08-11T04:22:47.913Z,8.27
2022-08-11T04:24:36.861Z,8.27
2022-08-11T04:24:51.864Z,8.38
2022-08-11T04:25:22.906Z,8.38
2022-08-11T04:25:58.467Z,8.38
2022-08-11T04:26:25.013Z,8.38
2022-08-11T04:26:55.906Z,8.38
2022-08-11T04:27:32.754Z,8.38
2022-08-11T04:27:57.906Z,8.38
2022-08-11T04:28:31.499Z,8.38
2022-08-11T04:28:59.944Z,8.38
2022-08-11T04:29:36.162Z,8.38
2022-08-11T04:30:45.261Z,8.38
2022-08-11T04:31:05.704Z,8.38
2022-08-11T04:31:51.014Z,8.38
2022-08-11T04:32:05.905Z,8.38
2022-08-11T04:32:37.075Z,8.38
2022-08-11T04:33:07.936Z,8.38
2022-08-11T04:33:39.899Z,8.38
2022-08-11T04:34:09.929Z,8.38
2022-08-11T04:34:40.960Z,8.38
2022-08-11T04:35:11.959Z,8.11
2022-08-11T04:35:44.922Z,8.11
2022-08-11T04:36:13.930Z,8.38
2022-08-11T04:36:45.007Z,8.50
2022-08-11T04:37:15.917Z,8.22
2022-08-11T04:37:50.721Z,8.22
2022-08-11T04:38:17.921Z,8.22
2022-08-11T04:38:50.045Z,8.22
2022-08-11T04:39:20.363Z,8.22
2022-08-11T04:39:51.007Z,8.22
2022-08-11T04:40:21.878Z,8.27
2022-08-11T04:40:52.945Z,8.27
2022-08-11T04:41:23.851Z,8.27
2022-08-11T04:41:54.913Z,8.27
2022-08-11T04:42:38.038Z,8.27
2022-08-11T04:42:56.906Z,8.27
2022-08-11T04:43:27.949Z,8.27
2022-08-11T04:44:05.907Z,8.27
2022-08-11T04:44:29.907Z,8.27
2022-08-11T04:45:13.383Z,8.27
2022-08-11T04:45:31.914Z,8.27
2022-08-11T04:46:02.959Z,8.27
2022-08-11T04:46:33.980Z,8.27
2022-08-11T04:47:04.975Z,8.27
2022-08-11T04:48:03.958Z,8.27
2022-08-11T04:48:06.892Z,8.27
2022-08-11T04:48:37.918Z,8.27
2022-08-11T04:49:09.918Z,8.27
2022-08-11T04:49:39.893Z,8.38
2022-08-11T04:50:11.020Z,8.38
2022-08-11T04:50:41.912Z,8.38
2022-08-11T04:51:17.419Z,8.38
2022-08-11T04:51:43.926Z,8.38
2022-08-11T04:52:14.925Z,8.22
2022-08-11T04:52:45.919Z,8.22
2022-08-11T04:53:16.946Z,8.50
2022-08-11T04:53:47.886Z,8.22
2022-08-11T04:54:19.915Z,8.22
2022-08-11T04:54:49.904Z,8.50
2022-08-11T04:55:20.902Z,8.22
2022-08-11T04:55:51.928Z,8.50
2022-08-11T04:56:22.906Z,8.22
2022-08-11T04:56:53.911Z,8.22
2022-08-11T04:57:24.907Z,8.50
2022-08-11T04:57:55.933Z,8.22
2022-08-11T04:58:29.984Z,8.50
2022-08-11T04:58:57.898Z,8.22
2022-08-11T04:59:29.894Z,8.50
2022-08-11T04:59:59.847Z,8.22
2022-08-11T05:00:43.268Z,8.22
2022-08-11T05:01:02.036Z,8.22
2022-08-11T05:01:36.586Z,8.22
2022-08-11T05:02:04.175Z,8.27
2022-08-11T05:02:34.906Z,8.61
2022-08-11T05:03:05.918Z,8.61
2022-08-11T05:03:36.907Z,8.61
2022-08-11T05:04:07.954Z,8.27
2022-08-11T05:04:39.870Z,8.27
2022-08-11T05:05:09.949Z,8.27
2022-08-11T05:05:40.892Z,8.27
2022-08-11T05:06:11.923Z,8.38
2022-08-11T05:06:42.855Z,8.72
2022-08-11T05:07:13.841Z,8.38
2022-08-11T05:07:44.898Z,8.38
2022-08-11T05:08:17.727Z,8.38
2022-08-11T05:08:46.862Z,8.38
2022-08-11T05:09:17.814Z,8.38
2022-08-11T05:09:49.941Z,8.38
2022-08-11T05:10:19.971Z,8.38
2022-08-11T05:10:50.872Z,8.50
2022-08-11T05:11:21.918Z,8.50
2022-08-11T05:11:57.980Z,8.50
2022-08-11T05:12:23.914Z,8.50
2022-08-11T05:12:54.909Z,8.50
2022-08-11T05:13:25.885Z,8.50
2022-08-11T05:13:56.923Z,8.50
2022-08-11T05:14:27.863Z,8.50
2022-08-11T05:14:59.902Z,8.50
2022-08-11T05:15:42.471Z,8.50
2022-08-11T05:16:01.095Z,8.50
2022-08-11T05:16:31.897Z,8.50
2022-08-11T05:17:02.896Z,8.50
2022-08-11T05:17:33.906Z,8.50
2022-08-11T05:18:04.896Z,8.38
2022-08-11T05:18:35.969Z,8.38
2022-08-11T05:19:06.905Z,8.38
2022-08-11T05:19:37.883Z,8.61
2022-08-11T05:20:09.903Z,8.61
2022-08-11T05:20:39.873Z,8.61
2022-08-11T05:21:10.926Z,8.61
2022-08-11T05:21:44.442Z,8.61
2022-08-11T05:22:12.940Z,8.50
2022-08-11T05:22:43.833Z,8.50
2022-08-11T05:23:14.953Z,8.50
2022-08-11T05:23:45.890Z,8.50
2022-08-11T05:24:16.912Z,8.72
2022-08-11T05:24:47.948Z,8.50
2022-08-11T05:26:44.213Z,8.50
2022-08-11T05:26:51.877Z,8.61
2022-08-11T05:27:23.058Z,8.61
2022-08-11T05:27:53.830Z,8.61
2022-08-11T05:28:24.889Z,8.61
2022-08-11T05:28:55.905Z,8.61
2022-08-11T05:29:26.905Z,8.27
2022-08-11T05:29:57.869Z,8.61
2022-08-11T05:30:42.288Z,8.72
2022-08-11T05:30:59.907Z,8.38
2022-08-11T05:31:30.881Z,8.72
2022-08-11T05:32:02.039Z,8.72
2022-08-11T05:32:32.913Z,8.38
2022-08-11T05:33:03.955Z,8.50
2022-08-11T05:33:34.900Z,8.50
2022-08-11T05:34:05.884Z,8.72
2022-08-11T05:34:36.905Z,8.50
2022-08-11T05:35:07.950Z,8.50
2022-08-11T05:36:00.123Z,8.61
2022-08-11T05:36:09.944Z,8.61
2022-08-11T05:36:40.936Z,8.61
2022-08-11T05:37:26.125Z,8.61
2022-08-11T05:37:42.834Z,8.61
2022-08-11T05:38:13.884Z,8.61
2022-08-11T05:38:44.911Z,8.61
2022-08-11T05:39:15.951Z,8.61
2022-08-11T05:39:46.972Z,8.61
2022-08-11T05:40:17.901Z,8.38
2022-08-11T05:40:51.388Z,8.72
2022-08-11T05:41:19.886Z,8.72
2022-08-11T05:41:50.862Z,8.50
2022-08-11T05:42:30.237Z,8.50
2022-08-11T05:42:52.815Z,8.72
2022-08-11T05:43:23.863Z,8.50
2022-08-11T05:44:20.035Z,8.50
2022-08-11T05:44:25.897Z,8.50
2022-08-11T05:44:56.875Z,8.77
2022-08-11T05:46:02.884Z,8.77
2022-08-11T05:46:29.954Z,8.61
2022-08-11T05:47:01.240Z,8.61
2022-08-11T05:47:31.914Z,8.61
2022-08-11T05:48:02.929Z,8.50
2022-08-11T05:48:33.888Z,8.72
2022-08-11T05:49:04.926Z,8.72
2022-08-11T05:49:35.895Z,8.61
2022-08-11T05:50:06.951Z,8.77
2022-08-11T05:50:37.915Z,8.77
2022-08-11T05:51:10.561Z,8.77
2022-08-11T05:51:39.998Z,8.61
2022-08-11T05:52:12.959Z,8.72
2022-08-11T05:52:42.109Z,8.72
2022-08-11T05:53:12.860Z,8.72
2022-08-11T05:53:46.198Z,8.72
2022-08-11T05:54:28.426Z,8.77
2022-08-11T05:54:46.875Z,8.77
2022-08-11T05:55:16.936Z,8.88
2022-08-11T05:55:53.994Z,8.88
2022-08-11T05:56:19.912Z,9.00
2022-08-11T05:56:49.887Z,8.72
2022-08-11T05:57:48.300Z,8.77
2022-08-11T05:58:22.984Z,8.77
2022-08-11T05:58:53.972Z,8.77
2022-08-11T05:59:24.965Z,8.77
2022-08-11T05:59:55.957Z,8.72
2022-08-11T06:00:39.335Z,8.88
2022-08-11T06:00:57.929Z,8.88
2022-08-11T06:01:29.934Z,8.88
2022-08-11T06:01:59.925Z,8.72
2022-08-11T06:02:30.915Z,8.50
2022-08-11T06:03:02.081Z,8.77
2022-08-11T06:03:32.843Z,8.88
2022-08-11T06:04:04.021Z,8.72
2022-08-11T06:04:34.929Z,8.77
2022-08-11T06:05:06.120Z,8.77
2022-08-11T06:05:37.339Z,9.22
2022-08-11T06:06:07.920Z,9.00
2022-08-11T06:06:43.442Z,9.11
2022-08-11T06:07:09.992Z,8.88
2022-08-11T06:07:47.316Z,8.88
2022-08-11T06:08:11.872Z,8.88
2022-08-11T06:08:42.910Z,9.22
2022-08-11T06:09:14.142Z,8.72
2022-08-11T06:09:45.169Z,8.72
2022-08-11T06:10:15.983Z,9.00
2022-08-11T06:10:47.017Z,8.72
2022-08-11T06:11:17.976Z,8.77
2022-08-11T06:11:49.918Z,8.88
2022-08-11T06:12:19.927Z,8.88
2022-08-11T06:12:50.993Z,8.88
2022-08-11T06:13:21.991Z,9.27
2022-08-11T06:13:53.117Z,9.00
2022-08-11T06:14:23.926Z,9.00
2022-08-11T06:14:54.998Z,9.00
2022-08-11T06:15:38.386Z,9.00
2022-08-11T06:15:56.970Z,8.72
2022-08-11T06:16:28.133Z,8.72
2022-08-11T06:16:59.977Z,8.77
2022-08-11T06:17:38.630Z,8.88
2022-08-11T06:18:01.009Z,9.00
2022-08-11T06:18:31.872Z,8.72
2022-08-11T06:19:03.038Z,9.11
2022-08-11T06:19:33.971Z,9.11
2022-08-11T06:20:07.523Z,8.77
2022-08-11T06:20:35.923Z,8.77
2022-08-11T06:21:06.925Z,8.88
2022-08-11T06:21:37.945Z,8.88
2022-08-11T06:22:09.943Z,8.88
2022-08-11T06:22:39.957Z,8.72
2022-08-11T06:23:10.969Z,9.00
2022-08-11T06:23:41.903Z,9.00
2022-08-11T06:24:13.009Z,9.00
2022-08-11T06:24:43.983Z,9.27
2022-08-11T06:25:14.908Z,8.88
2022-08-11T06:25:45.912Z,8.77
2022-08-11T06:26:16.984Z,8.77
2022-08-11T06:27:09.171Z,8.77
2022-08-11T06:27:19.893Z,8.88
2022-08-11T06:27:49.988Z,8.88
2022-08-11T06:28:21.264Z,8.88
2022-08-11T06:28:51.981Z,9.22
2022-08-11T06:29:22.938Z,8.88
2022-08-11T06:29:54.825Z,8.88
2022-08-11T06:30:37.333Z,8.88
2022-08-11T06:30:55.968Z,8.88
2022-08-11T06:31:26.928Z,8.88
2022-08-11T06:31:58.008Z,8.88
2022-08-11T06:32:29.911Z,8.88
2022-08-11T06:32:59.918Z,9.00
2022-08-11T06:33:30.964Z,9.00
2022-08-11T06:34:02.047Z,8.72
2022-08-11T06:34:32.936Z,8.77
2022-08-11T06:35:04.005Z,8.77
2022-08-11T06:35:34.958Z,8.77
2022-08-11T06:36:05.983Z,9.11
2022-08-11T06:36:36.993Z,8.77
2022-08-11T06:37:08.044Z,9.11
2022-08-11T06:37:39.996Z,8.77
2022-08-11T06:38:09.936Z,8.50
2022-08-11T06:38:40.902Z,8.61
2022-08-11T06:39:12.050Z,8.88
2022-08-11T06:39:42.967Z,8.61
2022-08-11T06:40:13.900Z,8.88
2022-08-11T06:40:44.896Z,8.61
2022-08-11T06:41:16.003Z,8.88
2022-08-11T06:41:46.983Z,8.88
2022-08-11T06:42:17.938Z,9.00
2022-08-11T06:42:49.974Z,8.72
2022-08-11T06:43:19.945Z,8.72
2022-08-11T06:43:55.612Z,8.72
2022-08-11T06:44:21.893Z,9.00
2022-08-11T06:44:52.963Z,8.72
2022-08-11T06:45:36.235Z,9.00
2022-08-11T06:45:54.927Z,9.00
2022-08-11T06:46:28.548Z,8.50
2022-08-11T06:46:56.967Z,8.72
2022-08-11T06:47:27.934Z,8.72
2022-08-11T06:47:59.941Z,9.11
2022-08-11T06:48:29.892Z,9.11
2022-08-11T06:49:01.114Z,8.77
2022-08-11T06:49:31.963Z,8.77
2022-08-11T06:50:02.936Z,8.88
2022-08-11T06:50:33.982Z,9.22
2022-08-11T06:51:04.926Z,8.88
2022-08-11T06:51:35.916Z,8.88
2022-08-11T06:52:06.970Z,8.88
2022-08-11T06:52:37.937Z,8.88
2022-08-11T06:53:09.985Z,8.88
2022-08-11T06:53:39.909Z,8.88
2022-08-11T06:54:10.952Z,9.00
2022-08-11T06:54:41.918Z,8.61
2022-08-11T06:55:57.375Z,8.61
2022-08-11T06:56:14.958Z,9.00
2022-08-11T06:56:45.938Z,9.00
2022-08-11T06:57:30.338Z,8.61
2022-08-11T06:57:47.882Z,8.61
2022-08-11T06:58:19.877Z,8.88
2022-08-11T06:58:49.909Z,8.88
2022-08-11T06:59:20.934Z,8.88
2022-08-11T06:59:51.907Z,8.88
2022-08-11T07:00:35.258Z,8.88
2022-08-11T07:00:53.921Z,8.88
2022-08-11T07:01:24.937Z,8.50
2022-08-11T07:01:55.965Z,8.61